createdAt,value
2023-05-07T00:00:50.047Z,97581.00
2023-05-07T00:03:16.321Z,97576.00
2023-05-07T00:05:42.605Z,97578.00
2023-05-07T00:08:09.075Z,97581.00
2023-05-07T00:10:35.282Z,97575.00
2023-05-07T00:13:01.886Z,97576.00
2023-05-07T00:15:28.083Z,97561.00
2023-05-07T00:17:54.394Z,97583.00
2023-05-07T00:20:20.610Z,97575.00
2023-05-07T00:22:47.043Z,97586.00
2023-05-07T00:25:13.221Z,97579.00
2023-05-07T00:27:39.521Z,97579.00
2023-05-07T00:30:06.583Z,97576.00
2023-05-07T00:32:32.803Z,97580.00
2023-05-07T00:34:59.025Z,97572.00
2023-05-07T00:37:25.692Z,97569.00
2023-05-07T00:39:51.898Z,97571.00
2023-05-07T00:42:18.485Z,97571.00
2023-05-07T00:44:44.621Z,97573.00
2023-05-07T00:47:11.963Z,97566.00
2023-05-07T00:49:45.793Z,97559.00
2023-05-07T00:52:17.056Z,97560.00
2023-05-07T00:54:43.737Z,97560.00
2023-05-07T00:57:11.603Z,97562.00
2023-05-07T00:59:38.619Z,97564.00
2023-05-07T01:02:05.125Z,97560.00
2023-05-07T01:04:31.377Z,97544.00
2023-05-07T01:07:00.770Z,97551.00
2023-05-07T01:09:28.979Z,97552.00
2023-05-07T01:11:58.243Z,97550.00
2023-05-07T01:14:25.853Z,97554.00
2023-05-07T01:16:53.881Z,97556.00
2023-05-07T01:19:23.094Z,97546.00
2023-05-07T01:21:51.231Z,97565.00
2023-05-07T01:24:19.397Z,97560.00
2023-05-07T01:26:45.623Z,97558.00
2023-05-07T01:29:14.260Z,97558.00
2023-05-07T01:31:43.141Z,97570.00
2023-05-07T01:34:14.749Z,97561.00
2023-05-07T01:36:44.511Z,97567.00
2023-05-07T01:39:11.073Z,97562.00
2023-05-07T01:41:38.007Z,97555.00
2023-05-07T01:44:06.332Z,97560.00
2023-05-07T01:46:34.469Z,97569.00
2023-05-07T01:49:00.955Z,97563.00
2023-05-07T01:51:27.680Z,97556.00
2023-05-07T01:53:53.935Z,97553.00
2023-05-07T01:56:21.229Z,97554.00
2023-05-07T01:58:48.618Z,97545.00
2023-05-07T02:01:15.220Z,97561.00
2023-05-07T02:03:42.743Z,97547.00
2023-05-07T02:06:16.399Z,97552.00
2023-05-07T02:08:43.195Z,97546.00
2023-05-07T02:11:10.649Z,97540.00
2023-05-07T02:13:36.830Z,97535.00
2023-05-07T02:16:04.212Z,97539.00
2023-05-07T02:18:30.743Z,97536.00
2023-05-07T02:20:56.907Z,97533.00
2023-05-07T02:23:23.442Z,97539.00
2023-05-07T02:25:49.928Z,97546.00
2023-05-07T02:28:16.084Z,97546.00
2023-05-07T02:30:48.904Z,97553.00
2023-05-07T02:33:15.261Z,97547.00
2023-05-07T02:35:41.641Z,97547.00
2023-05-07T02:38:08.168Z,97545.00
2023-05-07T02:40:38.886Z,97557.00
2023-05-07T02:43:05.936Z,97555.00
2023-05-07T02:45:33.402Z,97551.00
2023-05-07T02:48:01.207Z,97544.00
2023-05-07T02:50:27.476Z,97536.00
2023-05-07T02:52:54.734Z,97538.00
2023-05-07T02:55:21.300Z,97542.00
2023-05-07T02:57:47.610Z,97553.00
2023-05-07T03:00:19.474Z,97544.00
2023-05-07T03:02:53.850Z,97543.00
2023-05-07T03:05:20.169Z,97539.00
2023-05-07T03:07:47.774Z,97546.00
2023-05-07T03:10:14.995Z,97554.00
2023-05-07T03:12:41.479Z,97566.00
2023-05-07T03:15:10.685Z,97535.00
2023-05-07T03:17:36.999Z,97539.00
2023-05-07T03:20:04.379Z,97540.00
2023-05-07T03:22:32.069Z,97533.00
2023-05-07T03:24:58.773Z,97539.00
2023-05-07T03:27:25.047Z,97537.00
2023-05-07T03:29:52.929Z,97534.00
2023-05-07T03:32:19.301Z,97523.00
2023-05-07T03:34:45.506Z,97537.00
2023-05-07T03:37:12.719Z,97535.00
2023-05-07T03:39:39.001Z,97525.00
2023-05-07T03:42:05.237Z,97539.00
2023-05-07T03:44:32.910Z,97544.00
2023-05-07T03:47:00.260Z,97535.00
2023-05-07T03:49:26.537Z,97533.00
2023-05-07T03:51:52.726Z,97521.00
2023-05-07T03:54:19.445Z,97534.00
2023-05-07T03:56:47.012Z,97542.00
2023-05-07T03:59:14.143Z,97537.00
2023-05-07T04:01:41.226Z,97541.00
2023-05-07T04:04:08.024Z,97536.00
2023-05-07T04:06:36.175Z,97539.00
2023-05-07T04:09:02.639Z,97549.00
2023-05-07T04:11:29.331Z,97546.00
2023-05-07T04:13:55.770Z,97554.00
2023-05-07T04:16:23.441Z,97549.00
2023-05-07T04:18:49.672Z,97546.00
2023-05-07T04:21:18.974Z,97549.00
2023-05-07T04:23:48.039Z,97560.00
2023-05-07T04:26:16.114Z,97567.00
2023-05-07T04:28:44.204Z,97550.00
2023-05-07T04:31:10.839Z,97558.00
2023-05-07T04:33:37.870Z,97541.00
2023-05-07T04:36:05.982Z,97553.00
2023-05-07T04:38:37.741Z,97554.00
2023-05-07T04:41:08.934Z,97547.00
2023-05-07T04:43:39.235Z,97550.00
2023-05-07T04:46:05.736Z,97542.00
2023-05-07T04:48:31.999Z,97544.00
2023-05-07T04:51:00.139Z,97546.00
2023-05-07T04:53:26.644Z,97546.00
2023-05-07T04:55:58.188Z,97549.00
2023-05-07T04:58:27.674Z,97549.00
2023-05-07T05:00:54.200Z,97549.00
2023-05-07T05:03:20.683Z,97552.00
2023-05-07T05:05:49.582Z,97551.00
2023-05-07T05:08:15.788Z,97554.00
2023-05-07T05:10:43.771Z,97563.00
2023-05-07T05:13:12.994Z,97560.00
2023-05-07T05:15:39.916Z,97565.00
2023-05-07T05:18:06.338Z,97568.00
2023-05-07T05:20:32.732Z,97568.00
2023-05-07T05:22:58.901Z,97570.00
2023-05-07T05:25:25.119Z,97572.00
2023-05-07T05:27:51.597Z,97573.00
2023-05-07T05:30:18.076Z,97568.00
2023-05-07T05:32:46.769Z,97576.00
2023-05-07T05:35:13.061Z,97572.00
2023-05-07T05:37:40.489Z,97558.00
2023-05-07T05:40:08.369Z,97581.00
2023-05-07T05:42:34.873Z,97568.00
2023-05-07T05:45:01.262Z,97579.00
2023-05-07T05:47:29.872Z,97579.00
2023-05-07T05:49:56.361Z,97576.00
2023-05-07T05:52:24.306Z,97573.00
2023-05-07T05:54:50.726Z,97574.00
2023-05-07T05:57:18.687Z,97580.00
2023-05-07T05:59:46.826Z,97578.00
2023-05-07T06:02:13.577Z,97580.00
2023-05-07T06:04:41.135Z,97583.00
2023-05-07T06:07:07.461Z,97582.00
2023-05-07T06:09:34.191Z,97576.00
2023-05-07T06:12:01.078Z,97573.00
2023-05-07T06:14:29.471Z,97583.00
2023-05-07T06:16:56.154Z,97585.00
2023-05-07T06:19:24.448Z,97581.00
2023-05-07T06:21:52.823Z,97588.00
2023-05-07T06:24:19.029Z,97584.00
2023-05-07T06:26:45.406Z,97599.00
2023-05-07T06:29:13.104Z,97588.00
2023-05-07T06:31:41.504Z,97588.00
2023-05-07T06:34:08.975Z,97592.00
2023-05-07T06:36:37.704Z,97592.00
2023-05-07T06:39:17.925Z,97591.00
2023-05-07T06:41:45.292Z,97594.00
2023-05-07T06:44:21.679Z,97593.00
2023-05-07T06:46:58.533Z,97600.00
2023-05-07T06:49:24.797Z,97593.00
2023-05-07T06:51:51.242Z,97582.00
2023-05-07T06:54:18.875Z,97593.00
2023-05-07T06:56:45.712Z,97600.00
2023-05-07T06:59:12.178Z,97604.00
2023-05-07T07:01:40.749Z,97612.00
2023-05-07T07:04:08.665Z,97618.00
2023-05-07T07:06:35.987Z,97619.00
2023-05-07T07:09:06.673Z,97628.00
2023-05-07T07:11:32.876Z,97607.00
2023-05-07T07:14:00.185Z,97614.00
2023-05-07T07:16:26.564Z,97607.00
2023-05-07T07:18:52.859Z,97612.00
2023-05-07T07:21:20.335Z,97616.00
2023-05-07T07:23:47.189Z,97593.00
2023-05-07T07:26:13.617Z,97609.00
2023-05-07T07:28:45.681Z,97607.00
2023-05-07T07:31:14.334Z,97604.00
2023-05-07T07:33:40.947Z,97605.00
2023-05-07T07:36:07.968Z,97609.00
2023-05-07T07:38:34.830Z,97605.00
2023-05-07T07:41:02.117Z,97605.00
2023-05-07T07:43:29.372Z,97615.00
2023-05-07T07:45:55.870Z,97613.00
2023-05-07T07:48:22.514Z,97617.00
2023-05-07T07:50:51.455Z,97610.00
2023-05-07T07:53:20.354Z,97617.00
2023-05-07T07:55:46.827Z,97617.00
2023-05-07T07:58:16.351Z,97615.00
2023-05-07T08:00:42.885Z,97609.00
2023-05-07T08:03:12.958Z,97623.00
2023-05-07T08:05:43.954Z,97632.00
2023-05-07T08:08:10.517Z,97623.00
2023-05-07T08:10:39.621Z,97628.00
2023-05-07T08:13:11.738Z,97621.00
2023-05-07T08:15:40.085Z,97628.00
2023-05-07T08:18:06.776Z,97625.00
2023-05-07T08:20:36.241Z,97627.00
2023-05-07T08:23:02.628Z,97620.00
2023-05-07T08:25:29.029Z,97627.00
2023-05-07T08:27:58.352Z,97623.00
2023-05-07T08:30:24.595Z,97625.00
2023-05-07T08:32:51.457Z,97616.00
2023-05-07T08:35:17.975Z,97619.00
2023-05-07T08:37:44.478Z,97616.00
2023-05-07T08:40:13.684Z,97612.00
2023-05-07T08:42:42.972Z,97613.00
2023-05-07T08:45:11.540Z,97612.00
2023-05-07T08:47:52.023Z,97613.00
2023-05-07T08:50:21.489Z,97613.00
2023-05-07T08:52:49.075Z,97615.00
2023-05-07T08:55:17.876Z,97623.00
2023-05-07T08:57:44.336Z,97626.00
2023-05-07T09:00:12.793Z,97625.00
2023-05-07T09:02:40.227Z,97623.00
2023-05-07T09:05:08.866Z,97622.00
2023-05-07T09:07:35.924Z,97619.00
2023-05-07T09:10:05.467Z,97610.00
2023-05-07T09:12:33.060Z,97627.00
2023-05-07T09:15:00.216Z,97622.00
2023-05-07T09:17:28.001Z,97621.00
2023-05-07T09:19:54.393Z,97621.00
2023-05-07T09:22:21.475Z,97622.00
2023-05-07T09:24:55.926Z,97613.00
2023-05-07T09:27:26.548Z,97625.00
2023-05-07T09:29:53.980Z,97620.00
2023-05-07T09:32:20.362Z,97610.00
2023-05-07T09:34:47.458Z,97618.00
2023-05-07T09:37:16.207Z,97605.00
2023-05-07T09:39:47.522Z,97621.00
2023-05-07T09:42:16.338Z,97616.00
2023-05-07T09:44:48.015Z,97635.00
2023-05-07T09:47:23.395Z,97609.00
2023-05-07T09:49:58.208Z,97613.00
2023-05-07T09:52:30.396Z,97613.00
2023-05-07T09:55:00.213Z,97615.00
2023-05-07T09:57:29.338Z,97605.00
2023-05-07T10:00:04.514Z,97614.00
2023-05-07T10:02:37.430Z,97612.00
2023-05-07T10:05:04.913Z,97611.00
2023-05-07T10:07:33.895Z,97607.00
2023-05-07T10:10:07.192Z,97618.00
2023-05-07T10:12:40.504Z,97609.00
2023-05-07T10:15:15.872Z,97607.00
2023-05-07T10:17:47.747Z,97608.00
2023-05-07T10:20:14.236Z,97610.00
2023-05-07T10:22:46.114Z,97616.00
2023-05-07T10:25:23.230Z,97605.00
2023-05-07T10:27:51.941Z,97608.00
2023-05-07T10:30:39.947Z,97609.00
2023-05-07T10:33:13.981Z,97601.00
2023-05-07T10:35:48.064Z,97592.00
2023-05-07T10:38:15.756Z,97603.00
2023-05-07T10:43:13.690Z,97590.00
2023-05-07T10:46:10.120Z,97611.00
2023-05-07T10:49:03.054Z,97594.00
2023-05-07T10:51:37.162Z,97606.00
2023-05-07T10:54:20.451Z,97604.00
2023-05-07T10:56:55.401Z,97609.00
2023-05-07T10:59:35.493Z,97597.00
2023-05-07T11:02:11.652Z,97608.00
2023-05-07T11:05:24.870Z,97605.00
2023-05-07T11:08:10.250Z,97605.00
2023-05-07T11:10:58.542Z,97604.00
2023-05-07T11:13:46.361Z,97595.00
2023-05-07T11:16:24.437Z,97606.00
2023-05-07T11:18:58.167Z,97603.00
2023-05-07T11:21:40.832Z,97597.00
2023-05-07T11:24:42.977Z,97606.00
2023-05-07T11:27:11.447Z,97598.00
2023-05-07T11:29:37.998Z,97595.00
2023-05-07T11:32:08.864Z,97603.00
2023-05-07T11:34:41.452Z,97603.00
2023-05-07T11:37:09.532Z,97599.00
2023-05-07T11:39:45.142Z,97610.00
2023-05-07T11:42:37.553Z,97599.00
2023-05-07T11:45:06.589Z,97599.00
2023-05-07T11:47:34.340Z,97605.00
2023-05-07T11:50:08.915Z,97599.00
2023-05-07T11:52:36.462Z,97605.00
2023-05-07T11:55:06.770Z,97604.00
2023-05-07T11:57:34.801Z,97595.00
2023-05-07T12:00:04.208Z,97597.00
2023-05-07T12:02:39.032Z,97597.00
2023-05-07T12:05:05.688Z,97603.00
2023-05-07T12:07:34.922Z,97606.00
2023-05-07T12:10:07.438Z,97597.00
2023-05-07T12:12:46.488Z,97592.00
2023-05-07T12:15:17.472Z,97611.00
2023-05-07T12:17:44.632Z,97600.00
2023-05-07T12:20:11.408Z,97589.00
2023-05-07T12:22:37.802Z,97606.00
2023-05-07T12:25:04.562Z,97602.00
2023-05-07T12:27:30.981Z,97606.00
2023-05-07T12:29:59.466Z,97599.00
2023-05-07T12:32:25.694Z,97597.00
2023-05-07T12:34:52.401Z,97593.00
2023-05-07T12:37:26.066Z,97605.00
2023-05-07T12:40:09.530Z,97590.00
2023-05-07T12:42:42.778Z,97606.00
2023-05-07T12:45:10.346Z,97618.00
2023-05-07T12:47:37.892Z,97608.00
2023-05-07T12:50:06.986Z,97621.00
2023-05-07T12:52:34.844Z,97621.00
2023-05-07T12:55:14.294Z,97617.00
2023-05-07T12:57:44.082Z,97622.00
2023-05-07T13:00:11.124Z,97635.00
2023-05-07T13:02:44.720Z,97634.00
2023-05-07T13:05:11.171Z,97646.00
2023-05-07T13:07:38.313Z,97645.00
2023-05-07T13:10:05.454Z,97658.00
2023-05-07T13:12:31.641Z,97649.00
2023-05-07T13:14:57.846Z,97657.00
2023-05-07T13:17:24.213Z,97655.00
2023-05-07T13:19:50.495Z,97659.00
2023-05-07T13:22:16.898Z,97671.00
2023-05-07T13:24:43.911Z,97666.00
2023-05-07T13:27:10.237Z,97662.00
2023-05-07T13:29:36.394Z,97667.00
2023-05-07T13:32:02.728Z,97677.00
2023-05-07T13:34:29.128Z,97689.00
2023-05-07T13:36:55.764Z,97687.00
2023-05-07T13:39:22.198Z,97682.00
2023-05-07T13:41:48.424Z,97674.00
2023-05-07T13:44:14.631Z,97675.00
2023-05-07T13:46:41.152Z,97680.00
2023-05-07T13:49:07.397Z,97680.00
2023-05-07T13:51:33.637Z,97688.00
2023-05-07T13:53:59.902Z,97675.00
2023-05-07T13:56:26.125Z,97686.00
2023-05-07T13:59:00.170Z,97682.00
2023-05-07T14:01:27.886Z,97685.00
2023-05-07T14:03:54.273Z,97680.00
2023-05-07T14:06:20.661Z,97696.00
2023-05-07T14:08:47.489Z,97692.00
2023-05-07T14:11:13.657Z,97699.00
2023-05-07T14:13:39.947Z,97684.00
2023-05-07T14:16:06.318Z,97682.00
2023-05-07T14:18:33.983Z,97689.00
2023-05-07T14:21:00.215Z,97688.00
2023-05-07T14:23:26.797Z,97694.00
2023-05-07T14:25:53.689Z,97685.00
2023-05-07T14:28:20.081Z,97690.00
2023-05-07T14:30:47.123Z,97672.00
2023-05-07T14:33:13.348Z,97676.00
2023-05-07T14:35:39.546Z,97674.00
2023-05-07T14:38:05.693Z,97681.00
2023-05-07T14:40:31.933Z,97683.00
2023-05-07T14:42:58.050Z,97677.00
2023-05-07T14:45:24.259Z,97689.00
2023-05-07T14:47:50.547Z,97694.00
2023-05-07T14:50:16.800Z,97678.00
2023-05-07T14:52:43.404Z,97696.00
2023-05-07T14:55:10.036Z,97689.00
2023-05-07T14:57:36.398Z,97695.00
2023-05-07T15:00:04.990Z,97704.00
2023-05-07T15:02:31.473Z,97701.00
2023-05-07T15:04:58.982Z,97698.00
2023-05-07T15:07:25.284Z,97699.00
2023-05-07T15:09:51.962Z,97700.00
2023-05-07T15:12:18.112Z,97696.00
2023-05-07T15:14:44.347Z,97691.00
2023-05-07T15:17:11.034Z,97711.00
2023-05-07T15:19:37.185Z,97683.00
2023-05-07T15:22:03.458Z,97701.00
2023-05-07T15:24:30.898Z,97702.00
2023-05-07T15:26:58.403Z,97703.00
2023-05-07T15:29:25.275Z,97696.00
2023-05-07T15:31:52.429Z,97696.00
2023-05-07T15:34:18.847Z,97696.00
2023-05-07T15:36:45.024Z,97693.00
2023-05-07T15:39:11.296Z,97711.00
2023-05-07T15:41:37.606Z,97701.00
2023-05-07T15:44:06.802Z,97704.00
2023-05-07T15:46:33.037Z,97702.00
2023-05-07T15:49:04.662Z,97699.00
2023-05-07T15:51:31.275Z,97699.00
2023-05-07T15:53:57.471Z,97698.00
2023-05-07T15:56:24.573Z,97694.00
2023-05-07T15:58:50.971Z,97695.00
2023-05-07T16:01:17.196Z,97694.00
2023-05-07T16:03:43.997Z,97705.00
2023-05-07T16:06:11.820Z,97713.00
2023-05-07T16:08:39.637Z,97706.00
2023-05-07T16:11:06.035Z,97701.00
2023-05-07T16:13:32.460Z,97695.00
2023-05-07T16:15:59.297Z,97715.00
2023-05-07T16:18:25.803Z,97698.00
2023-05-07T16:20:52.128Z,97695.00
2023-05-07T16:23:18.832Z,97691.00
2023-05-07T16:25:45.309Z,97691.00
2023-05-07T16:28:11.725Z,97692.00
2023-05-07T16:30:38.170Z,97707.00
2023-05-07T16:33:04.459Z,97704.00
2023-05-07T16:35:30.604Z,97703.00
2023-05-07T16:37:56.789Z,97700.00
2023-05-07T16:40:23.076Z,97698.00
2023-05-07T16:42:49.357Z,97702.00
2023-05-07T16:45:16.140Z,97704.00
2023-05-07T16:47:42.674Z,97704.00
2023-05-07T16:50:09.326Z,97696.00
2023-05-07T16:52:35.979Z,97701.00
2023-05-07T16:55:02.231Z,97701.00
2023-05-07T16:57:31.851Z,97701.00
2023-05-07T16:59:59.128Z,97706.00
2023-05-07T17:02:25.479Z,97711.00
2023-05-07T17:04:51.765Z,97721.00
2023-05-07T17:07:17.967Z,97706.00
2023-05-07T17:09:44.130Z,97706.00
2023-05-07T17:12:10.368Z,97714.00
2023-05-07T17:14:36.581Z,97704.00
2023-05-07T17:17:02.954Z,97699.00
2023-05-07T17:19:29.383Z,97704.00
2023-05-07T17:21:55.796Z,97717.00
2023-05-07T17:24:21.986Z,97707.00
2023-05-07T17:26:48.198Z,97707.00
2023-05-07T17:29:15.022Z,97709.00
2023-05-07T17:31:41.522Z,97717.00
2023-05-07T17:34:07.719Z,97734.00
2023-05-07T17:36:33.879Z,97718.00
2023-05-07T17:39:00.150Z,97714.00
2023-05-07T17:41:26.300Z,97733.00
2023-05-07T17:43:52.732Z,97722.00
2023-05-07T17:46:18.888Z,97728.00
2023-05-07T17:48:45.067Z,97727.00
2023-05-07T17:51:11.274Z,97740.00
2023-05-07T17:53:37.489Z,97737.00
2023-05-07T17:56:03.702Z,97742.00
2023-05-07T17:58:30.955Z,97735.00
2023-05-07T18:00:57.160Z,97751.00
2023-05-07T18:03:24.569Z,97748.00
2023-05-07T18:05:51.421Z,97750.00
2023-05-07T18:08:17.734Z,97761.00
2023-05-07T18:10:43.950Z,97752.00
2023-05-07T18:13:10.259Z,97747.00
2023-05-07T18:15:36.461Z,97762.00
2023-05-07T18:18:02.770Z,97757.00
2023-05-07T18:20:29.049Z,97758.00
2023-05-07T18:22:55.421Z,97761.00
2023-05-07T18:25:21.835Z,97766.00
2023-05-07T18:27:48.019Z,97774.00
2023-05-07T18:30:14.646Z,97784.00
2023-05-07T18:32:41.130Z,97784.00
2023-05-07T18:35:08.137Z,97788.00
2023-05-07T18:37:34.301Z,97784.00
2023-05-07T18:40:03.379Z,97790.00
2023-05-07T18:42:30.695Z,97800.00
2023-05-07T18:44:57.817Z,97790.00
2023-05-07T18:47:24.034Z,97800.00
2023-05-07T18:49:50.335Z,97790.00
2023-05-07T18:52:17.642Z,97802.00
2023-05-07T18:54:44.968Z,97802.00
2023-05-07T18:57:11.188Z,97809.00
2023-05-07T18:59:37.461Z,97810.00
2023-05-07T19:02:03.722Z,97812.00
2023-05-07T19:04:30.210Z,97817.00
2023-05-07T19:06:56.614Z,97820.00
2023-05-07T19:09:22.790Z,97824.00
2023-05-07T19:11:49.073Z,97827.00
2023-05-07T19:14:15.274Z,97833.00
2023-05-07T19:16:41.591Z,97835.00
2023-05-07T19:19:08.663Z,97837.00
2023-05-07T19:21:34.932Z,97844.00
2023-05-07T19:24:01.376Z,97842.00
2023-05-07T19:26:27.624Z,97850.00
2023-05-07T19:29:01.764Z,97844.00
2023-05-07T19:31:38.643Z,97857.00
2023-05-07T19:34:04.917Z,97865.00
2023-05-07T19:36:33.799Z,97843.00
2023-05-07T19:39:00.006Z,97873.00
2023-05-07T19:41:26.328Z,97863.00
2023-05-07T19:43:52.499Z,97870.00
2023-05-07T19:46:18.888Z,97879.00
2023-05-07T19:48:45.315Z,97884.00
2023-05-07T19:51:11.578Z,97892.00
2023-05-07T19:53:37.806Z,97890.00
2023-05-07T19:56:09.887Z,97894.00
2023-05-07T19:58:37.120Z,97893.00
2023-05-07T20:01:05.406Z,97911.00
2023-05-07T20:03:33.599Z,97903.00
2023-05-07T20:06:00.439Z,97914.00
2023-05-07T20:08:27.792Z,97903.00
2023-05-07T20:10:58.407Z,97902.00
2023-05-07T20:13:26.121Z,97912.00
2023-05-07T20:16:00.179Z,97905.00
2023-05-07T20:18:28.201Z,97899.00
2023-05-07T20:20:55.208Z,97899.00
2023-05-07T20:23:21.616Z,97909.00
2023-05-07T20:25:48.350Z,97912.00
2023-05-07T20:28:14.600Z,97916.00
2023-05-07T20:30:40.936Z,97923.00
2023-05-07T20:33:07.269Z,97907.00
2023-05-07T20:35:33.906Z,97902.00
2023-05-07T20:38:00.378Z,97912.00
2023-05-07T20:40:27.164Z,97916.00
2023-05-07T20:42:53.429Z,97914.00
2023-05-07T20:45:19.981Z,97932.00
2023-05-07T20:47:46.363Z,97919.00
2023-05-07T20:50:12.839Z,97926.00
2023-05-07T20:52:40.217Z,97938.00
2023-05-07T20:55:07.254Z,97922.00
2023-05-07T20:57:33.432Z,97930.00
2023-05-07T20:59:59.633Z,97927.00
2023-05-07T21:02:25.911Z,97927.00
2023-05-07T21:04:52.171Z,97927.00
2023-05-07T21:07:18.515Z,97931.00
2023-05-07T21:09:44.703Z,97937.00
2023-05-07T21:12:10.880Z,97946.00
2023-05-07T21:14:37.959Z,97949.00
2023-05-07T21:17:06.259Z,97945.00
2023-05-07T21:19:33.300Z,97932.00
2023-05-07T21:21:59.516Z,97960.00
2023-05-07T21:24:26.006Z,97939.00
2023-05-07T21:26:55.689Z,97950.00
2023-05-07T21:29:22.640Z,97954.00
2023-05-07T21:31:49.360Z,97947.00
2023-05-07T21:34:15.690Z,97951.00
2023-05-07T21:36:41.881Z,97953.00
2023-05-07T21:39:08.131Z,97948.00
2023-05-07T21:41:35.675Z,97941.00
2023-05-07T21:44:03.693Z,97948.00
2023-05-07T21:46:30.037Z,97950.00
2023-05-07T21:48:56.537Z,97950.00
2023-05-07T21:51:22.911Z,97941.00
2023-05-07T21:53:49.062Z,97947.00
2023-05-07T21:56:15.329Z,97941.00
2023-05-07T21:58:41.487Z,97937.00
2023-05-07T22:01:11.568Z,97931.00
2023-05-07T22:03:38.864Z,97949.00
2023-05-07T22:06:05.794Z,97945.00
2023-05-07T22:08:31.985Z,97939.00
2023-05-07T22:10:58.222Z,97937.00
2023-05-07T22:13:25.092Z,97939.00
2023-05-07T22:15:57.388Z,97938.00
2023-05-07T22:18:25.174Z,97938.00
2023-05-07T22:20:51.778Z,97933.00
2023-05-07T22:23:18.369Z,97931.00
2023-05-07T22:25:44.595Z,97935.00
2023-05-07T22:28:10.788Z,97931.00
2023-05-07T22:30:37.416Z,97933.00
2023-05-07T22:33:03.718Z,97934.00
2023-05-07T22:35:29.939Z,97942.00
2023-05-07T22:37:56.175Z,97937.00
2023-05-07T22:40:22.380Z,97937.00
2023-05-07T22:42:48.654Z,97924.00
2023-05-07T22:45:15.305Z,97931.00
2023-05-07T22:47:41.549Z,97932.00
2023-05-07T22:50:08.373Z,97921.00
2023-05-07T22:52:34.831Z,97928.00
2023-05-07T22:55:01.020Z,97933.00
2023-05-07T22:57:27.231Z,97931.00
2023-05-07T22:59:56.546Z,97933.00
2023-05-07T23:02:23.123Z,97914.00
2023-05-07T23:04:49.491Z,97915.00
2023-05-07T23:07:15.717Z,97921.00
2023-05-07T23:09:42.361Z,97929.00
2023-05-07T23:12:08.917Z,97922.00
2023-05-07T23:14:35.921Z,97929.00
2023-05-07T23:17:02.126Z,97929.00
2023-05-07T23:19:28.350Z,97922.00
2023-05-07T23:21:54.532Z,97913.00
2023-05-07T23:24:20.722Z,97929.00
2023-05-07T23:26:46.920Z,97929.00
2023-05-07T23:29:13.123Z,97923.00
2023-05-07T23:31:39.515Z,97910.00
2023-05-07T23:34:05.797Z,97921.00
2023-05-07T23:36:32.157Z,97924.00
2023-05-07T23:38:58.393Z,97925.00
2023-05-07T23:41:25.001Z,97929.00
2023-05-07T23:43:51.186Z,97912.00
2023-05-07T23:46:17.422Z,97926.00
2023-05-07T23:48:43.650Z,97927.00
2023-05-07T23:51:09.845Z,97934.00
2023-05-07T23:53:36.326Z,97913.00
2023-05-07T23:56:02.994Z,97914.00
2023-05-07T23:58:29.154Z,97918.00
